createdAt,value
2023-04-05T00:01:50.244Z,11.63
2023-04-05T00:04:21.184Z,9.18
2023-04-05T00:06:52.886Z,11.23
2023-04-05T00:09:22.833Z,12.98
2023-04-05T00:11:53.803Z,10.20
2023-04-05T00:14:23.239Z,11.18
2023-04-05T00:16:52.775Z,10.23
2023-04-05T00:19:23.306Z,11.25
2023-04-05T00:21:54.579Z,8.05
2023-04-05T00:24:24.411Z,11.02
2023-04-05T00:26:54.969Z,9.40
2023-04-05T00:29:24.483Z,10.38
2023-04-05T00:31:53.632Z,15.57
2023-04-05T00:34:23.192Z,11.35
2023-04-05T00:36:52.417Z,13.80
2023-04-05T00:39:21.932Z,11.43
2023-04-05T00:41:51.077Z,9.88
2023-04-05T00:44:21.841Z,14.15
2023-04-05T00:46:51.300Z,12.05
2023-04-05T00:51:51.013Z,10.32
2023-04-05T00:54:20.833Z,10.73
2023-04-05T00:56:53.207Z,5.65
2023-04-05T00:59:24.444Z,8.10
2023-04-05T01:02:02.692Z,10.23
2023-04-05T01:04:36.779Z,12.40
2023-04-05T01:07:14.302Z,7.90
2023-04-05T01:09:52.670Z,10.68
2023-04-05T01:12:25.172Z,11.10
2023-04-05T01:14:57.222Z,11.27
2023-04-05T01:17:28.785Z,8.65
2023-04-05T01:20:00.614Z,8.82
2023-04-05T01:23:21.103Z,7.72
2023-04-05T01:26:24.226Z,9.00
2023-04-05T01:29:12.021Z,10.10
2023-04-05T01:31:51.209Z,7.43
2023-04-05T01:36:59.107Z,5.95
2023-04-05T01:39:30.273Z,7.05
2023-04-05T01:42:01.568Z,7.78
2023-04-05T01:44:30.954Z,6.20
2023-04-05T01:47:01.814Z,8.75
2023-04-05T01:49:31.029Z,7.25
2023-04-05T01:52:00.954Z,13.45
2023-04-05T01:54:31.063Z,7.72
2023-04-05T01:57:02.291Z,10.27
2023-04-05T01:59:32.811Z,8.07
2023-04-05T02:02:04.232Z,12.85
2023-04-05T02:04:33.430Z,7.50
2023-04-05T02:07:03.102Z,6.97
2023-04-05T02:09:32.370Z,7.13
2023-04-05T02:12:01.735Z,10.18
2023-04-05T02:14:31.368Z,12.55
2023-04-05T02:17:03.309Z,12.30
2023-04-05T02:19:40.994Z,8.07
2023-04-05T02:22:11.385Z,8.68
2023-04-05T02:27:09.733Z,7.07
2023-04-05T02:29:39.217Z,7.90
2023-04-05T02:32:10.168Z,7.35
2023-04-05T02:34:41.369Z,5.70
2023-04-05T02:37:10.815Z,8.82
2023-04-05T02:39:40.029Z,7.18
2023-04-05T02:42:09.456Z,6.65
2023-04-05T02:44:38.523Z,7.40
2023-04-05T02:47:09.441Z,12.00
2023-04-05T02:49:38.886Z,9.80
2023-04-05T02:52:09.315Z,6.65
2023-04-05T02:54:41.050Z,11.65
2023-04-05T02:57:12.354Z,7.00
2023-04-05T02:59:52.169Z,7.70
2023-04-05T03:02:25.261Z,8.73
2023-04-05T03:04:55.471Z,6.40
2023-04-05T03:07:25.643Z,9.23
2023-04-05T03:12:25.362Z,7.65
2023-04-05T03:14:55.206Z,6.85
2023-04-05T03:17:27.945Z,6.30
2023-04-05T03:20:09.134Z,11.52
2023-04-05T03:22:39.602Z,7.28
2023-04-05T03:25:09.736Z,5.93
2023-04-05T03:27:52.976Z,9.80
2023-04-05T03:30:23.356Z,9.85
2023-04-05T03:33:01.664Z,8.13
2023-04-05T03:35:46.801Z,13.63
2023-04-05T03:38:16.884Z,8.60
2023-04-05T03:41:04.826Z,9.15
2023-04-05T03:43:37.926Z,7.13
2023-04-05T03:46:08.165Z,9.20
2023-04-05T03:48:39.131Z,12.93
2023-04-05T03:51:08.487Z,7.57
2023-04-05T03:53:37.866Z,10.00
2023-04-05T03:56:07.955Z,7.30
2023-04-05T03:58:51.265Z,8.57
2023-04-05T04:01:25.937Z,11.15
2023-04-05T04:03:57.621Z,8.85
2023-04-05T04:06:27.468Z,8.25
2023-04-05T04:08:57.586Z,9.20
2023-04-05T04:11:27.349Z,14.20
2023-04-05T04:13:57.037Z,8.60
2023-04-05T04:16:38.681Z,11.15
2023-04-05T04:19:34.442Z,8.45
2023-04-05T04:22:10.320Z,7.47
2023-04-05T04:25:04.720Z,9.68
2023-04-05T04:27:36.291Z,7.47
2023-04-05T04:30:28.798Z,9.18
2023-04-05T04:33:29.089Z,10.93
2023-04-05T04:36:26.625Z,10.48
2023-04-05T04:39:18.037Z,11.50
2023-04-05T04:42:06.272Z,10.50
2023-04-05T04:44:58.296Z,12.83
2023-04-05T04:47:53.419Z,10.75
2023-04-05T04:50:41.429Z,13.07
2023-04-05T04:53:13.671Z,13.68
2023-04-05T04:55:43.417Z,16.27
2023-04-05T05:00:45.326Z,13.80
2023-04-05T05:05:45.331Z,13.20
2023-04-05T05:08:19.689Z,9.77
2023-04-05T05:10:53.684Z,19.83
2023-04-05T05:13:23.199Z,15.82
2023-04-05T05:15:53.090Z,13.37
2023-04-05T05:18:22.550Z,14.77
2023-04-05T05:20:53.380Z,13.60
2023-04-05T05:23:25.469Z,11.32
2023-04-05T05:26:00.552Z,10.93
2023-04-05T05:28:30.030Z,11.73
2023-04-05T05:31:02.012Z,10.15
2023-04-05T05:33:31.609Z,6.90
2023-04-05T05:36:00.747Z,8.13
2023-04-05T05:38:31.799Z,12.38
2023-04-05T05:41:01.343Z,13.35
2023-04-05T05:43:31.058Z,14.25
2023-04-05T05:46:03.452Z,12.48
2023-04-05T05:48:33.365Z,17.80
2023-04-05T05:51:09.643Z,12.57
2023-04-05T05:53:41.156Z,16.10
2023-04-05T05:56:10.589Z,7.55
2023-04-05T05:58:40.573Z,13.10
2023-04-05T06:01:12.108Z,6.28
2023-04-05T06:03:41.812Z,12.20
2023-04-05T06:06:11.427Z,12.32
2023-04-05T06:08:42.830Z,9.32
2023-04-05T06:11:19.836Z,9.75
2023-04-05T06:13:50.682Z,7.68
2023-04-05T06:16:20.163Z,5.97
2023-04-05T06:18:49.945Z,7.63
2023-04-05T06:21:19.404Z,7.95
2023-04-05T06:23:50.491Z,7.57
2023-04-05T06:26:20.859Z,13.32
2023-04-05T06:28:50.485Z,7.68
2023-04-05T06:31:21.434Z,9.13
2023-04-05T06:33:51.027Z,9.15
2023-04-05T06:36:20.630Z,6.32
2023-04-05T06:38:51.637Z,9.95
2023-04-05T06:41:21.058Z,13.18
2023-04-05T06:43:50.824Z,7.03
2023-04-05T06:46:20.026Z,8.05
2023-04-05T06:48:50.098Z,6.72
2023-04-05T06:51:19.387Z,9.13
2023-04-05T06:53:50.550Z,12.30
2023-04-05T06:56:19.745Z,7.93
2023-04-05T06:58:49.701Z,4.80
2023-04-05T07:01:19.107Z,6.65
2023-04-05T07:03:48.528Z,9.40
2023-04-05T07:06:17.978Z,5.82
2023-04-05T07:08:47.991Z,10.77
2023-04-05T07:11:18.531Z,6.45
2023-04-05T07:13:48.032Z,8.02
2023-04-05T07:16:19.307Z,8.05
2023-04-05T07:18:48.957Z,10.35
2023-04-05T07:21:18.269Z,6.53
2023-04-05T07:23:47.985Z,7.45
2023-04-05T07:26:18.555Z,6.85
2023-04-05T07:28:48.165Z,7.25
2023-04-05T07:31:17.667Z,4.20
2023-04-05T07:33:47.022Z,5.88
2023-04-05T07:36:16.217Z,6.78
2023-04-05T07:38:46.053Z,7.18
2023-04-05T07:41:16.850Z,7.30
2023-04-05T07:43:47.811Z,10.88
2023-04-05T07:46:17.491Z,5.93
2023-04-05T07:48:48.817Z,4.70
2023-04-05T07:51:18.082Z,7.53
2023-04-05T07:53:48.196Z,3.25
2023-04-05T07:56:17.755Z,5.32
2023-04-05T07:58:50.517Z,7.88
2023-04-05T08:01:19.762Z,6.97
2023-04-05T08:03:49.239Z,4.22
2023-04-05T08:06:18.999Z,8.68
2023-04-05T08:08:49.171Z,6.93
2023-04-05T08:11:18.441Z,6.05
2023-04-05T08:13:49.410Z,6.88
2023-04-05T08:16:18.656Z,6.65
2023-04-05T08:18:48.067Z,13.90
2023-04-05T08:21:17.217Z,7.78
2023-04-05T08:23:46.888Z,9.10
2023-04-05T08:26:16.062Z,5.22
2023-04-05T08:28:45.503Z,5.90
2023-04-05T08:31:16.226Z,6.65
2023-04-05T08:33:45.589Z,6.38
2023-04-05T08:36:14.963Z,7.97
2023-04-05T08:38:44.349Z,6.75
2023-04-05T08:41:19.502Z,7.35
2023-04-05T08:43:59.048Z,4.47
2023-04-05T08:46:32.413Z,6.72
2023-04-05T08:49:06.125Z,9.63
2023-04-05T08:51:39.657Z,9.10
2023-04-05T08:54:10.260Z,7.70
2023-04-05T08:56:41.461Z,8.80
2023-04-05T08:59:13.455Z,10.13
2023-04-05T09:01:49.067Z,5.63
2023-04-05T09:04:22.393Z,18.33
2023-04-05T09:06:52.832Z,5.45
2023-04-05T09:09:23.877Z,6.85
2023-04-05T09:11:53.524Z,6.53
2023-04-05T09:16:53.984Z,5.15
2023-04-05T09:19:23.488Z,6.97
2023-04-05T09:22:03.557Z,5.18
2023-04-05T09:24:41.753Z,3.83
2023-04-05T09:27:12.396Z,3.78
2023-04-05T09:29:43.219Z,4.60
2023-04-05T09:32:14.978Z,6.45
2023-04-05T09:34:45.464Z,4.75
2023-04-05T09:37:23.384Z,6.72
2023-04-05T09:40:02.921Z,9.38
2023-04-05T09:42:44.114Z,5.65
2023-04-05T09:45:14.377Z,6.03
2023-04-05T09:47:58.996Z,2.80
2023-04-05T09:50:29.227Z,5.30
2023-04-05T09:53:09.133Z,6.82
2023-04-05T09:55:40.267Z,6.82
2023-04-05T09:58:14.212Z,9.50
2023-04-05T10:01:03.325Z,6.22
2023-04-05T10:03:50.352Z,4.60
2023-04-05T10:06:19.971Z,7.30
2023-04-05T10:08:49.946Z,4.38
2023-04-05T10:11:21.228Z,6.13
2023-04-05T10:13:51.913Z,7.03
2023-04-05T10:16:25.014Z,8.57
2023-04-05T10:18:55.790Z,10.77
2023-04-05T10:21:29.897Z,5.60
2023-04-05T10:24:07.549Z,4.95
2023-04-05T10:26:47.642Z,7.97
2023-04-05T10:29:25.276Z,5.70
2023-04-05T10:32:01.165Z,7.85
2023-04-05T10:34:38.181Z,4.95
2023-04-05T10:37:08.759Z,4.95
2023-04-05T10:39:46.593Z,8.18
2023-04-05T10:42:21.436Z,6.03
2023-04-05T10:44:55.747Z,6.55
2023-04-05T10:47:29.217Z,5.07
2023-04-05T10:50:06.062Z,10.90
2023-04-05T10:52:37.539Z,6.72
2023-04-05T10:55:08.326Z,8.13
2023-04-05T10:57:39.724Z,12.40
2023-04-05T11:00:13.344Z,5.95
2023-04-05T11:02:43.126Z,8.88
2023-04-05T11:05:37.148Z,9.27
2023-04-05T11:08:08.213Z,5.75
2023-04-05T11:10:40.486Z,6.60
2023-04-05T11:13:13.963Z,8.05
2023-04-05T11:15:43.785Z,8.20
2023-04-05T11:18:21.951Z,9.30
2023-04-05T11:20:56.196Z,6.47
2023-04-05T11:23:27.356Z,4.15
2023-04-05T11:25:59.796Z,6.38
2023-04-05T11:28:32.319Z,6.60
2023-04-05T11:31:16.855Z,6.70
2023-04-05T11:34:11.224Z,7.47
2023-04-05T11:36:48.232Z,8.13
2023-04-05T11:39:28.431Z,8.57
2023-04-05T11:42:13.684Z,8.02
2023-04-05T11:44:46.651Z,7.30
2023-04-05T11:47:21.937Z,4.63
2023-04-05T11:49:53.128Z,11.98
2023-04-05T11:52:24.113Z,7.80
2023-04-05T11:54:54.586Z,6.00
2023-04-05T11:57:25.435Z,9.13
2023-04-05T11:59:57.146Z,5.20
2023-04-05T12:02:26.657Z,3.55
2023-04-05T12:04:58.180Z,5.70
2023-04-05T12:07:32.638Z,4.88
2023-04-05T12:10:04.965Z,5.97
2023-04-05T12:12:40.158Z,7.25
2023-04-05T12:15:12.587Z,6.43
2023-04-05T12:17:46.805Z,7.20
2023-04-05T12:20:19.446Z,9.95
2023-04-05T12:22:52.706Z,7.47
2023-04-05T12:25:22.844Z,8.77
2023-04-05T12:27:52.360Z,6.47
2023-04-05T12:32:54.634Z,9.30
2023-04-05T12:35:31.923Z,8.75
2023-04-05T12:38:05.690Z,9.40
2023-04-05T12:40:37.072Z,7.30
2023-04-05T12:43:08.257Z,5.70
2023-04-05T12:45:41.745Z,5.95
2023-04-05T12:48:13.774Z,4.30
2023-04-05T12:50:46.053Z,6.25
2023-04-05T12:53:21.310Z,5.85
2023-04-05T12:55:52.593Z,12.32
2023-04-05T12:58:22.807Z,7.82
2023-04-05T13:00:52.283Z,4.55
2023-04-05T13:03:23.823Z,13.65
2023-04-05T13:05:53.619Z,8.02
2023-04-05T13:08:24.308Z,9.55
2023-04-05T13:10:55.787Z,8.73
2023-04-05T13:13:27.141Z,8.45
2023-04-05T13:15:56.586Z,7.95
2023-04-05T13:18:26.205Z,10.80
2023-04-05T13:20:55.648Z,11.60
2023-04-05T13:23:26.388Z,10.52
2023-04-05T13:25:56.015Z,7.28
2023-04-05T13:28:26.051Z,8.18
2023-04-05T13:30:55.891Z,7.28
2023-04-05T13:33:25.033Z,8.35
2023-04-05T13:35:54.549Z,11.00
2023-04-05T13:38:25.186Z,10.35
2023-04-05T13:40:54.716Z,10.63
2023-04-05T13:43:23.880Z,8.90
2023-04-05T13:45:53.251Z,11.25
2023-04-05T13:48:22.311Z,11.50
2023-04-05T13:50:52.058Z,11.23
2023-04-05T13:53:21.256Z,10.40
2023-04-05T13:55:53.420Z,6.70
2023-04-05T13:58:22.744Z,9.50
2023-04-05T14:00:53.611Z,6.60
2023-04-05T14:03:23.059Z,7.97
2023-04-05T14:08:24.809Z,11.50
2023-04-05T14:10:56.020Z,6.60
2023-04-05T14:13:25.301Z,9.18
2023-04-05T14:15:54.957Z,12.77
2023-04-05T14:18:24.265Z,10.38
2023-04-05T14:20:53.926Z,10.30
2023-04-05T14:23:23.272Z,11.43
2023-04-05T14:25:54.272Z,15.55
2023-04-05T14:28:23.577Z,11.30
2023-04-05T14:30:53.278Z,11.98
2023-04-05T14:33:23.957Z,11.30
2023-04-05T14:35:53.585Z,11.18
2023-04-05T14:38:22.833Z,12.70
2023-04-05T14:40:52.314Z,6.60
2023-04-05T14:43:23.096Z,9.43
2023-04-05T14:45:52.729Z,10.98
2023-04-05T14:48:21.965Z,8.68
2023-04-05T14:50:51.667Z,13.57
2023-04-05T14:53:21.416Z,7.50
2023-04-05T14:55:51.018Z,8.73
2023-04-05T14:58:21.670Z,10.63
2023-04-05T15:00:52.172Z,9.50
2023-04-05T15:03:21.754Z,10.25
2023-04-05T15:08:20.392Z,6.63
2023-04-05T15:10:50.347Z,7.22
2023-04-05T15:15:53.103Z,10.25
2023-04-05T15:18:22.415Z,6.80
2023-04-05T15:20:53.411Z,12.93
2023-04-05T15:23:22.843Z,10.23
2023-04-05T15:25:52.378Z,10.85
2023-04-05T15:28:22.153Z,10.80
2023-04-05T15:30:54.233Z,8.20
2023-04-05T15:33:24.048Z,8.75
2023-04-05T15:35:53.830Z,13.25
2023-04-05T15:38:23.227Z,9.93
2023-04-05T15:40:53.357Z,7.28
2023-04-05T15:43:24.350Z,9.57
2023-04-05T15:45:57.895Z,10.35
2023-04-05T15:48:27.484Z,7.75
2023-04-05T15:50:57.181Z,8.82
2023-04-05T15:53:27.748Z,11.82
2023-04-05T15:55:58.445Z,9.25
2023-04-05T15:58:28.515Z,6.03
2023-04-05T16:03:29.372Z,7.03
2023-04-05T16:05:59.485Z,11.00
2023-04-05T16:10:58.431Z,8.05
2023-04-05T16:13:27.877Z,6.45
2023-04-05T16:15:57.725Z,9.40
2023-04-05T16:18:31.780Z,6.70
2023-04-05T16:21:01.470Z,9.45
2023-04-05T16:23:30.798Z,15.43
2023-04-05T16:26:00.306Z,10.40
2023-04-05T16:28:29.586Z,10.23
2023-04-05T16:31:00.144Z,11.68
2023-04-05T16:33:30.970Z,10.30
2023-04-05T16:36:00.827Z,8.63
2023-04-05T16:38:29.975Z,16.52
2023-04-05T16:41:00.008Z,8.30
2023-04-05T16:45:58.838Z,7.70
2023-04-05T16:48:30.802Z,8.73
2023-04-05T16:51:00.879Z,11.32
2023-04-05T16:53:30.993Z,10.07
2023-04-05T16:56:00.723Z,10.63
2023-04-05T16:58:30.560Z,10.57
2023-04-05T17:01:00.636Z,15.82
2023-04-05T17:06:03.311Z,13.90
2023-04-05T17:11:02.086Z,11.68
2023-04-05T17:13:31.738Z,12.05
2023-04-05T17:16:01.864Z,14.60
2023-04-05T17:21:02.399Z,11.68
2023-04-05T17:23:31.942Z,13.82
2023-04-05T17:26:01.617Z,10.02
2023-04-05T17:28:31.972Z,10.82
2023-04-05T17:31:01.776Z,11.60
2023-04-05T17:33:32.729Z,15.38
2023-04-05T17:36:03.134Z,15.77
2023-04-05T17:38:32.735Z,11.52
2023-04-05T17:41:03.267Z,16.17
2023-04-05T17:43:32.807Z,13.38
2023-04-05T17:46:03.321Z,9.95
2023-04-05T17:48:34.257Z,13.65
2023-04-05T17:51:07.910Z,17.10
2023-04-05T17:53:37.709Z,14.43
2023-04-05T17:58:36.517Z,14.15
2023-04-05T18:01:06.182Z,18.65
2023-04-05T18:03:37.310Z,19.77
2023-04-05T18:06:08.054Z,19.85
2023-04-05T18:08:37.581Z,16.23
2023-04-05T18:13:36.632Z,17.55
2023-04-05T18:18:37.073Z,16.35
2023-04-05T18:21:08.170Z,14.57
2023-04-05T18:23:37.696Z,18.50
2023-04-05T18:26:08.213Z,20.40
2023-04-05T18:28:37.708Z,20.08
2023-04-05T18:31:10.324Z,21.42
2023-04-05T18:33:42.922Z,22.35
2023-04-05T18:36:14.524Z,28.30
2023-04-05T18:38:44.067Z,35.03
2023-04-05T18:41:15.290Z,26.73
2023-04-05T18:43:44.887Z,31.05
2023-04-05T18:46:18.640Z,23.52
2023-04-05T18:48:54.359Z,51.00
2023-04-05T18:51:27.806Z,47.72
2023-04-05T18:53:57.612Z,33.97
2023-04-05T18:58:58.147Z,28.08
2023-04-05T19:01:27.856Z,31.02
2023-04-05T19:04:00.490Z,39.15
2023-04-05T19:06:30.551Z,34.67
2023-04-05T19:09:02.303Z,42.40
2023-04-05T19:11:31.949Z,42.05
2023-04-05T19:14:04.141Z,29.75
2023-04-05T19:16:34.154Z,34.97
2023-04-05T19:19:06.338Z,25.42
2023-04-05T19:21:38.120Z,33.03
2023-04-05T19:24:12.183Z,31.83
2023-04-05T19:26:48.287Z,38.72
2023-04-05T19:29:17.633Z,38.97
2023-04-05T19:31:49.110Z,33.92
2023-04-05T19:34:19.911Z,24.98
2023-04-05T19:36:49.846Z,29.60
2023-04-05T19:39:22.997Z,29.45
2023-04-05T19:41:55.045Z,24.08
2023-04-05T19:44:39.775Z,25.60
2023-04-05T19:47:11.611Z,23.02
2023-04-05T19:49:43.549Z,28.75
2023-04-05T19:52:36.438Z,31.83
2023-04-05T19:55:25.667Z,46.50
2023-04-05T19:57:57.308Z,68.35
2023-04-05T20:00:39.136Z,52.15
2023-04-05T20:03:29.077Z,53.40
2023-04-05T20:06:06.724Z,32.95
2023-04-05T20:08:38.831Z,28.45
2023-04-05T20:11:11.192Z,23.52
2023-04-05T20:13:50.786Z,26.92
2023-04-05T20:16:24.882Z,21.30
2023-04-05T20:18:55.702Z,22.60
2023-04-05T20:21:27.765Z,25.27
2023-04-05T20:23:58.965Z,45.30
2023-04-05T20:26:31.105Z,22.63
2023-04-05T20:29:06.955Z,22.08
2023-04-05T20:31:40.568Z,25.38
2023-04-05T20:34:14.184Z,17.52
2023-04-05T20:36:51.348Z,24.38
2023-04-05T20:39:24.723Z,23.75
2023-04-05T20:41:58.106Z,14.77
2023-04-05T20:44:32.971Z,20.13
2023-04-05T20:47:03.310Z,19.92
2023-04-05T20:49:34.802Z,14.85
2023-04-05T20:52:09.018Z,19.25
2023-04-05T20:54:39.423Z,21.25
2023-04-05T20:57:09.659Z,30.23
2023-04-05T20:59:39.547Z,30.55
2023-04-05T21:02:09.062Z,33.08
2023-04-05T21:04:38.757Z,27.48
2023-04-05T21:07:09.332Z,30.65
2023-04-05T21:09:38.958Z,29.90
2023-04-05T21:12:08.609Z,34.25
2023-04-05T21:17:07.443Z,30.63
2023-04-05T21:19:37.016Z,33.28
2023-04-05T21:22:06.241Z,38.50
2023-04-05T21:24:37.248Z,37.72
2023-04-05T21:27:06.606Z,44.25
2023-04-05T21:29:36.121Z,47.47
2023-04-05T21:32:05.708Z,47.65
2023-04-05T21:34:35.311Z,51.13
2023-04-05T21:37:04.610Z,62.63
2023-04-05T21:39:34.056Z,57.03
2023-04-05T21:42:05.667Z,55.83
2023-04-05T21:44:35.321Z,46.25
2023-04-05T21:47:04.724Z,43.42
2023-04-05T21:49:34.227Z,50.15
2023-04-05T21:52:03.524Z,59.67
2023-04-05T21:54:33.378Z,60.58
2023-04-05T21:57:04.300Z,46.15
2023-04-05T21:59:33.954Z,52.90
2023-04-05T22:02:03.496Z,53.60
2023-04-05T22:04:33.294Z,49.80
2023-04-05T22:07:02.696Z,50.83
2023-04-05T22:09:32.764Z,43.15
2023-04-05T22:14:32.984Z,45.00
2023-04-05T22:17:02.427Z,49.53
2023-04-05T22:19:32.066Z,47.60
2023-04-05T22:22:01.529Z,46.47
2023-04-05T22:24:31.331Z,45.65
2023-04-05T22:27:00.856Z,50.85
2023-04-05T22:29:32.005Z,47.53
2023-04-05T22:32:01.921Z,45.33
2023-04-05T22:34:31.902Z,38.47
2023-04-05T22:37:01.601Z,42.15
2023-04-05T22:39:31.273Z,57.10
2023-04-05T22:42:00.715Z,46.78
2023-04-05T22:44:34.011Z,50.83
2023-04-05T22:47:03.265Z,45.08
2023-04-05T22:49:33.751Z,42.75
2023-04-05T22:54:32.349Z,41.65
2023-04-05T22:57:01.686Z,45.95
2023-04-05T22:59:32.596Z,43.15
2023-04-05T23:02:01.929Z,44.20
2023-04-05T23:04:31.517Z,38.15
2023-04-05T23:07:00.720Z,38.83
2023-04-05T23:09:30.314Z,40.13
2023-04-05T23:11:59.550Z,38.95
2023-04-05T23:14:29.056Z,39.30
2023-04-05T23:16:59.708Z,37.17
2023-04-05T23:19:29.239Z,43.30
2023-04-05T23:21:58.669Z,44.67
2023-04-05T23:24:28.310Z,36.08
2023-04-05T23:26:57.491Z,36.92
2023-04-05T23:29:27.327Z,47.33
2023-04-05T23:31:56.618Z,41.55
2023-04-05T23:34:28.195Z,45.55
2023-04-05T23:36:57.431Z,44.85
2023-04-05T23:39:27.071Z,42.25
2023-04-05T23:41:56.807Z,45.13
2023-04-05T23:44:26.380Z,38.00
2023-04-05T23:46:55.773Z,40.63
2023-04-05T23:49:28.195Z,39.70
2023-04-05T23:51:57.616Z,45.33
2023-04-05T23:54:27.091Z,39.67
2023-04-05T23:56:57.552Z,41.85
2023-04-05T23:59:27.285Z,37.95
